createdAt,value
2022-09-14T00:03:20.823Z,2.84
2022-09-14T00:08:52.605Z,2.85
2022-09-14T00:14:24.284Z,2.86
2022-09-14T00:19:55.573Z,2.71
2022-09-14T00:25:26.885Z,2.52
2022-09-14T00:30:58.689Z,2.61
2022-09-14T00:36:30.667Z,2.45
2022-09-14T00:42:02.329Z,2.42
2022-09-14T00:47:33.987Z,2.50
2022-09-14T00:53:05.652Z,2.42
2022-09-14T00:58:37.244Z,2.35
2022-09-14T01:04:08.764Z,2.45
2022-09-14T01:09:40.428Z,2.65
2022-09-14T01:15:12.144Z,2.75
2022-09-14T01:20:43.940Z,2.90
2022-09-14T01:26:15.619Z,3.00
2022-09-14T01:31:47.033Z,3.10
2022-09-14T01:37:18.803Z,3.20
2022-09-14T01:42:50.568Z,3.30
2022-09-14T01:53:51.454Z,3.60
2022-09-14T01:59:23.257Z,3.75
2022-09-14T02:04:55.053Z,3.75
2022-09-14T02:15:55.815Z,3.90
2022-09-14T02:21:27.081Z,3.95
2022-09-14T02:37:56.918Z,4.35
2022-09-14T02:43:28.218Z,4.45
2022-09-14T02:48:59.520Z,4.60
2022-09-14T02:54:30.997Z,4.75
2022-09-14T03:05:31.255Z,4.95
2022-09-14T03:11:02.663Z,5.00
2022-09-14T03:16:34.099Z,5.15
2022-09-14T03:22:05.698Z,5.25
2022-09-14T03:27:37.102Z,5.35
2022-09-14T03:38:39.809Z,5.55
2022-09-14T04:00:39.560Z,5.85
2022-09-14T04:06:11.192Z,5.95
2022-09-14T04:11:42.618Z,6.00
2022-09-14T04:17:14.252Z,6.10
2022-09-14T04:22:45.594Z,6.25
2022-09-14T04:39:15.889Z,6.55
2022-09-14T04:50:18.452Z,6.90
2022-09-14T04:55:49.733Z,7.05
2022-09-14T05:01:21.262Z,7.25
2022-09-14T05:06:52.735Z,7.40
2022-09-14T05:12:24.095Z,7.45
2022-09-14T05:17:55.461Z,7.55
2022-09-14T05:28:56.181Z,7.90
2022-09-14T05:34:27.499Z,7.90
2022-09-14T05:39:59.021Z,7.95
2022-09-14T05:45:30.193Z,8.00
2022-09-14T05:51:01.482Z,8.05
2022-09-14T05:58:53.266Z,1.97
2022-09-14T06:04:25.062Z,2.95
2022-09-14T06:15:25.619Z,2.45
2022-09-14T06:20:56.990Z,2.55
2022-09-14T06:26:28.351Z,2.62
2022-09-14T06:31:59.773Z,2.52
2022-09-14T06:37:31.080Z,2.45
2022-09-14T06:43:02.460Z,2.29
2022-09-14T06:48:34.326Z,2.35
2022-09-14T06:54:05.980Z,2.40
2022-09-14T06:59:37.327Z,2.29
2022-09-14T07:05:09.127Z,2.18
2022-09-14T07:10:40.383Z,2.10
2022-09-14T07:21:41.695Z,2.08
2022-09-14T07:27:13.344Z,2.07
2022-09-14T07:32:45.096Z,2.07
2022-09-14T07:38:27.070Z,1.96
2022-09-14T07:43:50.046Z,2.00
2022-09-14T07:49:21.906Z,2.05
2022-09-14T08:00:24.992Z,2.15
2022-09-14T08:05:57.082Z,2.30
2022-09-14T08:11:28.769Z,2.45
2022-09-14T08:17:00.642Z,2.45
2022-09-14T08:22:32.068Z,2.50
2022-09-14T08:28:03.661Z,2.60
2022-09-14T08:33:35.112Z,2.75
2022-09-14T08:39:06.605Z,2.90
2022-09-14T08:44:38.394Z,2.90
2022-09-14T08:50:09.654Z,3.00
2022-09-14T08:55:40.796Z,3.00
2022-09-14T09:01:12.248Z,3.20
2022-09-14T09:06:43.388Z,3.30
2022-09-14T09:12:14.860Z,3.40
2022-09-14T09:17:46.337Z,3.60
2022-09-14T09:23:17.915Z,3.65
2022-09-14T09:28:49.168Z,3.75
2022-09-14T09:34:20.550Z,3.80
2022-09-14T09:39:51.971Z,3.95
2022-09-14T09:50:52.958Z,4.05
2022-09-14T09:56:24.262Z,4.15
2022-09-14T10:07:27.407Z,4.30
2022-09-14T10:12:59.183Z,4.30
2022-09-14T10:18:30.782Z,4.45
2022-09-14T10:24:02.478Z,4.60
2022-09-14T10:29:33.970Z,4.65
2022-09-14T10:35:05.483Z,4.80
2022-09-14T10:40:37.094Z,4.90
2022-09-14T10:46:08.355Z,4.95
2022-09-14T10:51:39.737Z,5.10
2022-09-14T10:57:11.138Z,5.25
2022-09-14T11:02:42.445Z,5.40
2022-09-14T11:08:13.686Z,5.45
2022-09-14T11:13:45.362Z,5.55
2022-09-14T11:19:16.874Z,5.55
2022-09-14T11:24:48.100Z,5.55
2022-09-14T11:30:19.442Z,5.65
2022-09-14T11:35:50.742Z,5.85
2022-09-14T11:41:22.512Z,6.00
2022-09-14T11:46:57.562Z,6.10
2022-09-14T11:49:17.334Z,3.00
2022-09-14T11:54:48.650Z,2.46
2022-09-14T12:00:20.051Z,1.97
2022-09-14T12:05:51.362Z,1.48
2022-09-14T12:11:22.771Z,1.18
2022-09-14T12:16:54.255Z,1.14
2022-09-14T12:22:25.728Z,1.54
2022-09-14T12:27:57.202Z,1.47
2022-09-14T12:33:28.403Z,1.42
2022-09-14T12:38:59.799Z,1.47
2022-09-14T12:50:00.503Z,1.31
2022-09-14T12:55:31.904Z,1.43
2022-09-14T13:01:03.167Z,1.47
2022-09-14T13:06:34.483Z,1.50
2022-09-14T13:12:05.838Z,1.53
2022-09-14T13:17:37.597Z,1.56
2022-09-14T13:23:08.917Z,1.63
2022-09-14T13:28:40.304Z,1.55
2022-09-14T13:34:11.466Z,1.55
2022-09-14T13:39:45.124Z,1.55
2022-09-14T13:45:18.521Z,1.60
2022-09-14T13:50:50.009Z,1.70
2022-09-14T13:56:21.239Z,1.70
2022-09-14T14:07:22.157Z,1.85
2022-09-14T14:12:53.308Z,2.00
2022-09-14T14:18:24.782Z,2.15
2022-09-14T14:24:12.725Z,2.20
2022-09-14T14:29:28.139Z,2.30
2022-09-14T14:34:59.619Z,2.40
2022-09-14T14:40:31.323Z,2.50
2022-09-14T14:46:02.694Z,2.55
2022-09-14T14:59:23.081Z,1.00
2022-09-14T15:04:54.470Z,1.48
2022-09-14T15:10:25.760Z,1.64
2022-09-14T15:15:57.143Z,1.72
2022-09-14T15:34:47.560Z,1.97
2022-09-14T15:40:18.985Z,2.30
2022-09-14T15:45:50.641Z,1.96
2022-09-14T15:56:51.590Z,2.62
2022-09-14T16:04:43.365Z,1.48
2022-09-14T16:15:44.321Z,1.96
2022-09-14T16:21:16.176Z,1.96
2022-09-14T16:26:48.159Z,1.80
2022-09-14T16:34:25.040Z,0.00
2022-09-14T16:39:56.137Z,0.99
2022-09-14T16:45:27.638Z,0.99
2022-09-14T16:50:59.190Z,1.24
2022-09-14T17:07:29.525Z,1.83
2022-09-14T17:13:01.279Z,1.96
2022-09-14T17:18:32.660Z,1.96
2022-09-14T17:29:33.303Z,2.05
2022-09-14T17:35:04.700Z,2.12
2022-09-14T17:40:36.071Z,2.04
2022-09-14T17:46:07.140Z,1.96
2022-09-14T17:51:38.867Z,2.16
2022-09-14T17:57:10.614Z,2.21
2022-09-14T18:02:41.901Z,2.08
2022-09-14T18:08:13.110Z,1.96
2022-09-14T18:13:44.449Z,2.01
2022-09-14T18:19:15.746Z,2.00
2022-09-14T18:24:47.450Z,2.10
2022-09-14T18:30:18.910Z,2.15
2022-09-14T18:35:50.234Z,2.20
2022-09-14T18:46:51.468Z,2.40
2022-09-14T18:52:22.965Z,2.45
2022-09-14T18:57:54.191Z,2.60
2022-09-14T19:03:26.228Z,2.65
2022-09-14T19:08:57.794Z,2.65
2022-09-14T19:14:29.652Z,2.70
2022-09-14T19:20:02.225Z,2.80
2022-09-14T19:25:33.747Z,2.90
2022-09-14T19:31:05.684Z,3.10
2022-09-14T19:36:37.501Z,3.15
2022-09-14T19:42:09.422Z,3.20
2022-09-14T19:47:40.897Z,3.30
2022-09-14T19:53:12.254Z,3.35
2022-09-14T19:58:44.311Z,3.45
2022-09-14T20:04:15.701Z,3.60
2022-09-14T20:09:47.157Z,3.70
2022-09-14T20:15:18.494Z,3.75
2022-09-14T20:20:49.835Z,3.85
2022-09-14T20:26:21.653Z,3.95
2022-09-14T20:31:53.135Z,4.15
2022-09-14T20:37:24.711Z,4.15
2022-09-14T20:42:55.919Z,4.35
2022-09-14T20:48:27.493Z,4.45
2022-09-14T20:53:59.023Z,4.50
2022-09-14T20:59:30.260Z,4.65
2022-09-14T21:05:01.625Z,4.70
2022-09-14T21:10:32.901Z,4.80
2022-09-14T21:16:04.574Z,4.90
2022-09-14T21:21:36.057Z,5.10
2022-09-14T21:27:07.363Z,5.20
2022-09-14T21:32:38.592Z,5.20
2022-09-14T21:38:09.711Z,5.30
2022-09-14T21:43:41.005Z,5.35
2022-09-14T21:49:12.537Z,5.45
2022-09-14T21:54:44.197Z,5.60
2022-09-14T22:00:15.498Z,5.85
2022-09-14T22:05:46.899Z,5.95
2022-09-14T22:11:21.156Z,6.15
2022-09-14T22:16:49.529Z,6.30
2022-09-14T22:22:21.137Z,6.50
2022-09-14T22:27:52.806Z,6.65
2022-09-14T22:33:24.694Z,6.65
2022-09-14T22:38:56.359Z,6.75
2022-09-14T22:44:27.970Z,6.95
2022-09-14T22:49:59.629Z,7.00
2022-09-14T22:55:31.491Z,7.05
2022-09-14T23:01:03.222Z,7.15
2022-09-14T23:06:34.730Z,7.30
2022-09-14T23:12:06.208Z,7.30
2022-09-14T23:17:37.512Z,7.50
2022-09-14T23:23:08.886Z,7.50
2022-09-14T23:28:40.294Z,7.60
2022-09-14T23:34:11.975Z,7.80
2022-09-14T23:39:43.270Z,7.80
2022-09-14T23:45:14.565Z,7.90
2022-09-14T23:50:46.204Z,8.10
2022-09-14T23:56:17.547Z,8.20
